createdAt,value
2023-03-02T00:02:17.619Z,12.18
2023-03-02T00:04:47.453Z,10.23
2023-03-02T00:07:16.913Z,11.60
2023-03-02T00:09:44.580Z,14.45
2023-03-02T00:12:12.217Z,7.72
2023-03-02T00:14:39.392Z,13.60
2023-03-02T00:17:07.969Z,14.30
2023-03-02T00:19:36.427Z,13.07
2023-03-02T00:22:03.707Z,15.38
2023-03-02T00:24:30.885Z,16.77
2023-03-02T00:26:58.170Z,15.43
2023-03-02T00:29:25.562Z,12.93
2023-03-02T00:31:52.797Z,15.55
2023-03-02T00:34:20.562Z,16.30
2023-03-02T00:36:49.402Z,17.10
2023-03-02T00:39:20.067Z,13.35
2023-03-02T00:41:47.578Z,15.32
2023-03-02T00:44:17.562Z,15.20
2023-03-02T00:46:45.322Z,15.25
2023-03-02T00:49:13.097Z,12.85
2023-03-02T00:51:40.466Z,16.70
2023-03-02T00:54:07.784Z,15.88
2023-03-02T00:56:35.213Z,8.40
2023-03-02T00:59:06.557Z,9.52
2023-03-02T01:01:33.695Z,11.55
2023-03-02T01:04:00.822Z,13.60
2023-03-02T01:06:27.939Z,15.50
2023-03-02T01:08:55.241Z,12.93
2023-03-02T01:11:23.210Z,11.30
2023-03-02T01:13:50.460Z,10.65
2023-03-02T01:16:18.141Z,17.75
2023-03-02T01:18:45.363Z,18.33
2023-03-02T01:21:13.847Z,11.02
2023-03-02T01:23:41.161Z,15.70
2023-03-02T01:26:08.563Z,17.40
2023-03-02T01:28:35.709Z,11.27
2023-03-02T01:31:04.495Z,14.98
2023-03-02T01:33:32.447Z,15.40
2023-03-02T01:35:59.885Z,17.98
2023-03-02T01:38:27.205Z,15.90
2023-03-02T01:40:54.409Z,16.40
2023-03-02T01:43:21.525Z,14.77
2023-03-02T01:45:52.193Z,18.13
2023-03-02T01:48:23.367Z,13.55
2023-03-02T01:50:50.750Z,16.25
2023-03-02T01:53:18.017Z,18.42
2023-03-02T01:55:45.943Z,13.68
2023-03-02T01:58:14.519Z,16.63
2023-03-02T02:00:42.201Z,13.82
2023-03-02T02:03:12.169Z,12.90
2023-03-02T02:05:40.578Z,10.95
2023-03-02T02:08:08.135Z,16.80
2023-03-02T02:10:36.035Z,13.43
2023-03-02T02:13:03.244Z,14.77
2023-03-02T02:15:30.524Z,17.50
2023-03-02T02:17:57.822Z,14.95
2023-03-02T02:20:27.736Z,15.98
2023-03-02T02:23:30.256Z,17.48
2023-03-02T02:26:12.041Z,15.23
2023-03-02T02:31:11.633Z,16.35
2023-03-02T02:33:39.894Z,17.35
2023-03-02T02:36:08.594Z,15.05
2023-03-02T02:38:36.437Z,8.45
2023-03-02T02:41:07.855Z,11.63
2023-03-02T02:43:35.188Z,15.73
2023-03-02T02:46:03.414Z,15.07
2023-03-02T02:48:32.256Z,14.32
2023-03-02T02:51:00.441Z,11.35
2023-03-02T02:53:42.763Z,16.77
2023-03-02T02:56:11.002Z,11.93
2023-03-02T02:58:40.747Z,17.17
2023-03-02T03:01:08.074Z,15.52
2023-03-02T03:03:37.275Z,16.90
2023-03-02T03:06:08.701Z,14.85
2023-03-02T03:08:50.088Z,15.35
2023-03-02T03:11:24.488Z,14.57
2023-03-02T03:13:54.727Z,15.52
2023-03-02T03:16:21.909Z,15.90
2023-03-02T03:18:50.094Z,13.63
2023-03-02T03:21:18.340Z,10.85
2023-03-02T03:23:46.159Z,15.13
2023-03-02T03:26:13.318Z,14.10
2023-03-02T03:28:40.621Z,17.65
2023-03-02T03:31:07.926Z,12.27
2023-03-02T03:33:35.273Z,16.52
2023-03-02T03:36:03.672Z,17.27
2023-03-02T03:38:30.978Z,14.20
2023-03-02T03:40:58.094Z,15.85
2023-03-02T03:43:25.186Z,13.40
2023-03-02T03:45:52.598Z,13.20
2023-03-02T03:48:20.015Z,10.73
2023-03-02T03:50:47.261Z,14.27
2023-03-02T03:53:14.403Z,14.55
2023-03-02T03:55:41.623Z,15.05
2023-03-02T03:58:09.300Z,15.45
2023-03-02T04:00:36.855Z,15.70
2023-03-02T04:03:04.197Z,15.18
2023-03-02T04:05:31.782Z,14.50
2023-03-02T04:08:02.188Z,8.77
2023-03-02T04:10:29.963Z,16.08
2023-03-02T04:12:57.248Z,8.90
2023-03-02T04:15:24.611Z,7.43
2023-03-02T04:17:51.912Z,13.43
2023-03-02T04:20:19.679Z,14.60
2023-03-02T04:22:47.759Z,16.00
2023-03-02T04:25:19.898Z,10.57
2023-03-02T04:27:47.547Z,10.63
2023-03-02T04:30:15.258Z,15.45
2023-03-02T04:32:43.973Z,12.95
2023-03-02T04:35:12.076Z,14.85
2023-03-02T04:37:40.017Z,13.73
2023-03-02T04:40:07.534Z,14.30
2023-03-02T04:42:34.886Z,14.82
2023-03-02T04:45:02.157Z,13.73
2023-03-02T04:47:29.345Z,7.35
2023-03-02T04:49:57.589Z,12.57
2023-03-02T04:52:25.458Z,13.05
2023-03-02T04:54:56.647Z,13.70
2023-03-02T04:57:23.776Z,12.02
2023-03-02T04:59:50.935Z,9.65
2023-03-02T05:02:18.601Z,14.20
2023-03-02T05:04:45.834Z,12.70
2023-03-02T05:07:13.128Z,9.85
2023-03-02T05:09:40.232Z,13.68
2023-03-02T05:12:07.560Z,10.95
2023-03-02T05:14:35.075Z,12.25
2023-03-02T05:17:02.189Z,12.45
2023-03-02T05:19:29.552Z,12.10
2023-03-02T05:21:57.178Z,14.52
2023-03-02T05:24:24.451Z,12.98
2023-03-02T05:26:51.830Z,15.25
2023-03-02T05:29:18.972Z,12.20
2023-03-02T05:31:47.282Z,8.20
2023-03-02T05:34:16.412Z,12.63
2023-03-02T05:36:43.641Z,10.43
2023-03-02T05:39:10.882Z,12.98
2023-03-02T05:41:38.265Z,10.52
2023-03-02T05:44:09.293Z,12.18
2023-03-02T05:46:36.795Z,12.65
2023-03-02T05:49:04.090Z,12.38
2023-03-02T05:51:31.366Z,13.55
2023-03-02T05:53:58.518Z,12.75
2023-03-02T05:56:25.959Z,14.23
2023-03-02T05:58:53.331Z,12.75
2023-03-02T06:01:20.636Z,11.90
2023-03-02T06:03:47.951Z,13.20
2023-03-02T06:06:15.182Z,10.75
2023-03-02T06:08:43.207Z,13.32
2023-03-02T06:11:10.910Z,13.45
2023-03-02T06:13:38.422Z,12.45
2023-03-02T06:16:06.085Z,13.30
2023-03-02T06:18:35.884Z,15.38
2023-03-02T06:21:03.087Z,13.95
2023-03-02T06:23:30.242Z,14.60
2023-03-02T06:25:58.215Z,11.13
2023-03-02T06:28:26.202Z,11.77
2023-03-02T06:30:53.446Z,13.30
2023-03-02T06:33:21.526Z,11.15
2023-03-02T06:35:49.602Z,12.70
2023-03-02T06:38:17.088Z,13.18
2023-03-02T06:40:44.548Z,10.27
2023-03-02T06:43:11.741Z,11.95
2023-03-02T06:45:39.091Z,13.52
2023-03-02T06:48:06.769Z,14.32
2023-03-02T06:50:34.696Z,12.82
2023-03-02T06:53:02.109Z,8.80
2023-03-02T06:55:29.468Z,8.00
2023-03-02T06:57:56.662Z,10.80
2023-03-02T07:00:28.228Z,11.75
2023-03-02T07:02:56.489Z,12.77
2023-03-02T07:05:24.943Z,9.15
2023-03-02T07:07:52.440Z,13.50
2023-03-02T07:10:19.700Z,14.70
2023-03-02T07:12:46.845Z,14.25
2023-03-02T07:15:14.143Z,13.82
2023-03-02T07:17:42.353Z,14.52
2023-03-02T07:20:10.163Z,11.82
2023-03-02T07:22:37.393Z,11.38
2023-03-02T07:25:04.628Z,14.18
2023-03-02T07:27:31.817Z,12.73
2023-03-02T07:29:58.970Z,14.07
2023-03-02T07:32:26.551Z,13.30
2023-03-02T07:34:53.735Z,10.02
2023-03-02T07:37:20.848Z,15.27
2023-03-02T07:39:49.172Z,11.93
2023-03-02T07:42:16.839Z,10.80
2023-03-02T07:44:44.260Z,12.27
2023-03-02T07:47:12.797Z,13.35
2023-03-02T07:49:39.974Z,10.63
2023-03-02T07:52:07.168Z,10.15
2023-03-02T07:54:34.546Z,13.02
2023-03-02T07:57:01.841Z,11.13
2023-03-02T07:59:29.333Z,10.23
2023-03-02T08:01:57.335Z,11.82
2023-03-02T08:04:24.769Z,8.77
2023-03-02T08:06:52.106Z,12.07
2023-03-02T08:09:19.424Z,12.23
2023-03-02T08:11:47.915Z,9.65
2023-03-02T08:14:15.100Z,11.82
2023-03-02T08:16:42.563Z,11.30
2023-03-02T08:19:10.482Z,9.18
2023-03-02T08:21:37.891Z,9.73
2023-03-02T08:24:05.212Z,8.15
2023-03-02T08:26:32.390Z,8.48
2023-03-02T08:28:59.913Z,7.90
2023-03-02T08:31:27.645Z,8.85
2023-03-02T08:33:54.956Z,7.47
2023-03-02T08:36:22.631Z,9.77
2023-03-02T08:38:50.129Z,10.13
2023-03-02T08:41:18.947Z,7.60
2023-03-02T08:43:47.288Z,9.88
2023-03-02T08:46:15.529Z,9.65
2023-03-02T08:48:42.783Z,8.10
2023-03-02T08:51:11.149Z,8.07
2023-03-02T08:53:39.531Z,8.25
2023-03-02T08:56:15.253Z,7.53
2023-03-02T08:58:42.403Z,8.98
2023-03-02T09:01:20.285Z,6.85
2023-03-02T09:03:47.503Z,7.72
2023-03-02T09:06:15.166Z,8.40
2023-03-02T09:08:42.495Z,8.60
2023-03-02T09:11:09.694Z,7.45
2023-03-02T09:13:36.977Z,8.60
2023-03-02T09:16:04.234Z,7.32
2023-03-02T09:18:32.031Z,7.63
2023-03-02T09:21:01.160Z,6.97
2023-03-02T09:25:55.658Z,6.97
2023-03-02T09:28:22.878Z,7.50
2023-03-02T09:30:51.201Z,7.82
2023-03-02T09:33:18.621Z,9.13
2023-03-02T09:35:46.605Z,8.35
2023-03-02T09:38:16.396Z,7.13
2023-03-02T09:40:55.050Z,6.03
2023-03-02T09:43:28.545Z,7.32
2023-03-02T09:46:13.906Z,7.72
2023-03-02T09:48:44.330Z,9.25
2023-03-02T09:51:25.627Z,7.07
2023-03-02T09:53:53.050Z,7.80
2023-03-02T09:56:20.716Z,7.53
2023-03-02T09:58:57.589Z,6.38
2023-03-02T10:01:33.373Z,6.93
2023-03-02T10:04:20.945Z,8.13
2023-03-02T10:06:48.223Z,7.53
2023-03-02T10:09:15.724Z,6.32
2023-03-02T10:15:15.237Z,7.85
2023-03-02T10:18:04.641Z,7.93
2023-03-02T10:20:37.384Z,8.25
2023-03-02T10:27:11.299Z,7.20
2023-03-02T10:29:48.576Z,7.75
2023-03-02T10:32:45.001Z,6.50
2023-03-02T10:35:23.161Z,6.60
2023-03-02T10:38:12.926Z,6.63
2023-03-02T10:40:44.380Z,7.28
2023-03-02T10:43:26.565Z,7.97
2023-03-02T10:46:04.308Z,7.57
2023-03-02T10:48:31.791Z,6.93
2023-03-02T10:51:00.624Z,7.22
2023-03-02T10:53:29.029Z,7.32
2023-03-02T10:55:56.163Z,6.07
2023-03-02T10:58:27.905Z,6.65
2023-03-02T11:00:58.055Z,7.25
2023-03-02T11:03:25.316Z,6.25
2023-03-02T11:05:52.586Z,6.50
2023-03-02T11:08:19.819Z,7.07
2023-03-02T11:11:01.204Z,6.45
2023-03-02T11:13:28.875Z,7.03
2023-03-02T11:15:59.716Z,5.82
2023-03-02T11:18:27.123Z,6.63
2023-03-02T11:20:56.159Z,6.10
2023-03-02T11:23:27.754Z,6.25
2023-03-02T11:25:56.927Z,6.60
2023-03-02T11:28:46.809Z,4.85
2023-03-02T11:31:17.566Z,5.45
2023-03-02T11:33:56.161Z,5.95
2023-03-02T11:36:31.422Z,6.28
2023-03-02T11:38:58.626Z,5.18
2023-03-02T11:41:30.283Z,5.85
2023-03-02T11:44:00.403Z,5.13
2023-03-02T11:46:30.661Z,4.80
2023-03-02T11:49:02.079Z,6.63
2023-03-02T11:51:30.922Z,6.68
2023-03-02T11:54:03.116Z,5.10
2023-03-02T11:56:34.294Z,5.20
2023-03-02T11:59:04.977Z,5.35
2023-03-02T12:01:34.586Z,4.40
2023-03-02T12:04:09.884Z,4.15
2023-03-02T12:06:41.041Z,5.82
2023-03-02T12:09:12.782Z,4.75
2023-03-02T12:11:42.328Z,4.13
2023-03-02T12:14:38.004Z,5.35
2023-03-02T12:17:29.905Z,4.15
2023-03-02T12:20:20.375Z,4.38
2023-03-02T12:22:47.679Z,5.03
2023-03-02T12:25:20.942Z,5.07
2023-03-02T12:27:49.339Z,4.57
2023-03-02T12:30:18.608Z,4.07
2023-03-02T12:32:48.299Z,4.55
2023-03-02T12:35:18.482Z,4.60
2023-03-02T12:37:57.148Z,5.22
2023-03-02T12:40:47.184Z,5.50
2023-03-02T12:43:17.571Z,5.28
2023-03-02T12:45:57.541Z,4.53
2023-03-02T12:48:27.997Z,3.97
2023-03-02T12:50:59.927Z,3.97
2023-03-02T12:53:27.773Z,4.43
2023-03-02T12:55:55.006Z,3.42
2023-03-02T12:58:27.800Z,4.28
2023-03-02T13:00:59.405Z,4.38
2023-03-02T13:03:27.565Z,4.97
2023-03-02T13:06:02.428Z,4.57
2023-03-02T13:08:30.131Z,4.68
2023-03-02T13:11:01.933Z,4.22
2023-03-02T13:13:45.533Z,4.50
2023-03-02T13:16:23.391Z,3.90
2023-03-02T13:18:55.355Z,4.53
2023-03-02T13:21:22.673Z,3.75
2023-03-02T13:23:51.903Z,4.50
2023-03-02T13:26:33.090Z,3.95
2023-03-02T13:29:07.776Z,4.60
2023-03-02T13:31:35.518Z,4.50
2023-03-02T13:34:02.761Z,3.42
2023-03-02T13:36:38.630Z,3.22
2023-03-02T13:39:07.628Z,3.92
2023-03-02T13:41:36.588Z,4.40
2023-03-02T13:44:30.358Z,4.00
2023-03-02T13:46:57.957Z,3.33
2023-03-02T13:49:29.280Z,3.72
2023-03-02T13:52:05.905Z,3.45
2023-03-02T13:54:36.291Z,3.65
2023-03-02T13:57:04.484Z,4.60
2023-03-02T13:59:32.408Z,4.35
2023-03-02T14:01:59.601Z,5.38
2023-03-02T14:04:27.511Z,6.78
2023-03-02T14:06:55.553Z,6.53
2023-03-02T14:09:23.001Z,5.43
2023-03-02T14:11:54.954Z,6.25
2023-03-02T14:14:23.987Z,3.65
2023-03-02T14:16:51.754Z,6.47
2023-03-02T14:19:20.130Z,6.53
2023-03-02T14:21:48.046Z,5.95
2023-03-02T14:24:15.713Z,6.50
2023-03-02T14:26:44.134Z,4.55
2023-03-02T14:29:26.776Z,5.60
2023-03-02T14:31:55.086Z,4.90
2023-03-02T14:34:22.242Z,5.22
2023-03-02T14:36:51.671Z,5.68
2023-03-02T14:39:30.932Z,5.60
2023-03-02T14:41:58.526Z,7.45
2023-03-02T14:44:25.932Z,5.03
2023-03-02T14:46:53.187Z,5.28
2023-03-02T14:49:21.083Z,5.53
2023-03-02T14:51:56.070Z,5.97
2023-03-02T14:56:50.683Z,5.30
2023-03-02T14:59:17.974Z,6.63
2023-03-02T15:01:46.294Z,5.07
2023-03-02T15:04:13.756Z,4.68
2023-03-02T15:06:41.925Z,6.00
2023-03-02T15:09:09.178Z,6.30
2023-03-02T15:11:36.475Z,4.07
2023-03-02T15:14:03.680Z,4.35
2023-03-02T15:16:31.008Z,6.05
2023-03-02T15:18:58.989Z,5.15
2023-03-02T15:21:26.415Z,5.78
2023-03-02T15:23:53.967Z,5.60
2023-03-02T15:26:21.142Z,5.78
2023-03-02T15:28:51.169Z,6.00
2023-03-02T15:31:18.714Z,5.63
2023-03-02T15:33:46.303Z,5.95
2023-03-02T15:36:14.195Z,5.65
2023-03-02T15:38:41.456Z,4.82
2023-03-02T15:41:09.991Z,4.75
2023-03-02T15:43:39.448Z,6.35
2023-03-02T15:46:09.127Z,5.50
2023-03-02T15:48:36.977Z,7.50
2023-03-02T15:51:07.833Z,7.35
2023-03-02T15:53:38.041Z,6.20
2023-03-02T15:56:09.740Z,7.53
2023-03-02T15:58:37.625Z,7.55
2023-03-02T16:01:08.597Z,8.13
2023-03-02T16:03:35.779Z,7.28
2023-03-02T16:06:03.267Z,6.05
2023-03-02T16:08:30.477Z,7.07
2023-03-02T16:11:01.916Z,8.38
2023-03-02T16:13:30.410Z,6.05
2023-03-02T16:15:57.956Z,9.05
2023-03-02T16:18:25.105Z,6.63
2023-03-02T16:20:52.298Z,20.45
2023-03-02T16:23:19.572Z,11.48
2023-03-02T16:25:49.669Z,7.00
2023-03-02T16:28:20.956Z,6.93
2023-03-02T16:30:49.051Z,7.03
2023-03-02T16:33:18.921Z,6.13
2023-03-02T16:35:46.150Z,6.28
2023-03-02T16:38:13.282Z,4.70
2023-03-02T16:40:40.864Z,5.30
2023-03-02T16:43:11.173Z,6.38
2023-03-02T16:45:38.473Z,7.10
2023-03-02T16:48:08.188Z,6.15
2023-03-02T16:50:35.319Z,7.35
2023-03-02T16:53:02.926Z,6.15
2023-03-02T16:55:30.182Z,7.55
2023-03-02T16:57:57.320Z,6.88
2023-03-02T17:00:25.298Z,8.73
2023-03-02T17:02:52.482Z,7.63
2023-03-02T17:05:20.418Z,12.00
2023-03-02T17:07:47.704Z,10.38
2023-03-02T17:10:17.120Z,9.65
2023-03-02T17:12:44.341Z,8.07
2023-03-02T17:15:13.927Z,9.20
2023-03-02T17:17:42.301Z,6.22
2023-03-02T17:20:10.544Z,10.00
2023-03-02T17:22:37.826Z,9.25
2023-03-02T17:25:05.399Z,7.80
2023-03-02T17:27:32.567Z,7.78
2023-03-02T17:30:00.325Z,8.48
2023-03-02T17:32:27.717Z,8.38
2023-03-02T17:34:57.945Z,9.10
2023-03-02T17:37:26.012Z,10.13
2023-03-02T17:39:53.287Z,8.27
2023-03-02T17:42:20.758Z,9.15
2023-03-02T17:44:48.102Z,11.45
2023-03-02T17:47:15.754Z,8.35
2023-03-02T17:49:47.503Z,8.90
2023-03-02T17:52:18.140Z,7.65
2023-03-02T17:54:45.487Z,10.65
2023-03-02T17:57:12.772Z,9.35
2023-03-02T17:59:40.011Z,6.82
2023-03-02T18:02:07.154Z,9.60
2023-03-02T18:04:34.371Z,10.35
2023-03-02T18:07:01.935Z,7.47
2023-03-02T18:09:29.399Z,6.85
2023-03-02T18:11:56.713Z,10.43
2023-03-02T18:14:28.349Z,8.18
2023-03-02T18:16:55.540Z,8.52
2023-03-02T18:19:22.839Z,8.38
2023-03-02T18:21:50.089Z,7.00
2023-03-02T18:24:17.318Z,8.52
2023-03-02T18:26:44.481Z,7.00
2023-03-02T18:29:11.789Z,9.80
2023-03-02T18:31:39.097Z,7.53
2023-03-02T18:34:06.386Z,6.72
2023-03-02T18:36:33.582Z,7.85
2023-03-02T18:39:00.772Z,14.02
2023-03-02T18:41:27.950Z,7.32
2023-03-02T18:43:55.334Z,7.25
2023-03-02T18:46:23.944Z,7.40
2023-03-02T18:48:51.848Z,7.20
2023-03-02T18:51:19.537Z,8.63
2023-03-02T18:53:47.738Z,7.65
2023-03-02T18:56:15.045Z,6.85
2023-03-02T18:58:42.536Z,4.55
2023-03-02T19:01:09.842Z,7.55
2023-03-02T19:03:38.665Z,5.82
2023-03-02T19:06:07.326Z,7.38
2023-03-02T19:08:35.651Z,4.75
2023-03-02T19:11:03.213Z,8.30
2023-03-02T19:13:30.374Z,6.25
2023-03-02T19:16:01.955Z,7.82
2023-03-02T19:18:29.426Z,5.10
2023-03-02T19:20:57.875Z,5.72
2023-03-02T19:23:25.576Z,4.82
2023-03-02T19:25:53.616Z,6.57
2023-03-02T19:28:21.718Z,7.95
2023-03-02T19:30:51.167Z,7.22
2023-03-02T19:33:18.995Z,7.70
2023-03-02T19:35:46.284Z,8.07
2023-03-02T19:38:13.430Z,5.45
2023-03-02T19:40:41.041Z,14.57
2023-03-02T19:43:08.220Z,7.13
2023-03-02T19:45:36.225Z,6.78
2023-03-02T19:48:05.776Z,6.40
2023-03-02T19:50:33.222Z,7.82
2023-03-02T19:53:00.570Z,5.40
2023-03-02T19:55:27.835Z,8.23
2023-03-02T19:58:00.990Z,9.10
2023-03-02T20:00:29.892Z,9.32
2023-03-02T20:02:57.869Z,8.45
2023-03-02T20:05:27.319Z,8.20
2023-03-02T20:07:55.027Z,7.05
2023-03-02T20:10:27.752Z,8.63
2023-03-02T20:12:54.916Z,8.48
2023-03-02T20:15:22.401Z,8.85
2023-03-02T20:17:49.661Z,7.72
2023-03-02T20:20:16.943Z,7.47
2023-03-02T20:22:45.527Z,8.43
2023-03-02T20:25:14.495Z,8.57
2023-03-02T20:27:41.824Z,8.25
2023-03-02T20:30:11.523Z,8.88
2023-03-02T20:32:38.729Z,8.77
2023-03-02T20:35:06.356Z,8.68
2023-03-02T20:37:33.645Z,9.18
2023-03-02T20:40:00.964Z,7.10
2023-03-02T20:42:31.236Z,9.10
2023-03-02T20:44:59.776Z,7.95
2023-03-02T20:47:27.074Z,8.75
2023-03-02T20:49:55.667Z,11.20
2023-03-02T20:52:23.460Z,9.68
2023-03-02T20:54:50.883Z,9.10
2023-03-02T20:57:19.780Z,7.68
2023-03-02T20:59:47.226Z,11.38
2023-03-02T21:02:15.559Z,10.52
2023-03-02T21:04:43.612Z,10.27
2023-03-02T21:07:10.875Z,7.93
2023-03-02T21:09:38.263Z,11.73
2023-03-02T21:12:08.393Z,10.98
2023-03-02T21:14:36.327Z,11.38
2023-03-02T21:17:03.685Z,11.60
2023-03-02T21:19:31.085Z,11.32
2023-03-02T21:21:58.617Z,10.57
2023-03-02T21:24:25.699Z,10.18
2023-03-02T21:26:54.362Z,11.35
2023-03-02T21:29:23.216Z,11.73
2023-03-02T21:31:51.171Z,8.60
2023-03-02T21:34:22.272Z,6.72
2023-03-02T21:36:53.150Z,9.05
2023-03-02T21:39:23.849Z,11.13
2023-03-02T21:41:51.511Z,9.75
2023-03-02T21:44:19.354Z,11.65
2023-03-02T21:46:46.757Z,13.40
2023-03-02T21:49:21.067Z,12.82
2023-03-02T21:51:49.869Z,11.77
2023-03-02T21:54:17.383Z,14.23
2023-03-02T21:56:44.846Z,13.63
2023-03-02T21:59:14.488Z,13.57
2023-03-02T22:01:41.960Z,7.93
2023-03-02T22:04:09.466Z,11.13
2023-03-02T22:06:37.768Z,8.00
2023-03-02T22:09:05.427Z,10.85
2023-03-02T22:11:36.917Z,7.60
2023-03-02T22:14:18.179Z,13.52
2023-03-02T22:16:48.044Z,12.05
2023-03-02T22:19:21.570Z,8.85
2023-03-02T22:21:49.593Z,8.35
2023-03-02T22:24:24.948Z,13.52
2023-03-02T22:26:59.191Z,13.32
2023-03-02T22:29:28.436Z,13.57
2023-03-02T22:34:24.522Z,10.85
2023-03-02T22:36:51.924Z,11.45
2023-03-02T22:39:26.944Z,12.32
2023-03-02T22:41:55.383Z,9.60
2023-03-02T22:44:23.793Z,11.55
2023-03-02T22:46:52.119Z,12.80
2023-03-02T22:49:19.436Z,7.93
2023-03-02T22:51:46.861Z,12.93
2023-03-02T22:54:25.190Z,13.82
2023-03-02T22:56:53.426Z,13.48
2023-03-02T22:59:22.734Z,12.95
2023-03-02T23:04:17.274Z,12.27
2023-03-02T23:06:46.339Z,12.00
2023-03-02T23:09:18.553Z,8.07
2023-03-02T23:11:45.998Z,11.35
2023-03-02T23:14:26.322Z,12.65
2023-03-02T23:16:55.804Z,10.40
2023-03-02T23:19:29.967Z,12.63
2023-03-02T23:21:57.207Z,6.68
2023-03-02T23:24:24.510Z,11.63
2023-03-02T23:26:52.511Z,11.32
2023-03-02T23:29:20.413Z,10.15
2023-03-02T23:31:47.933Z,9.13
2023-03-02T23:34:15.120Z,9.50
2023-03-02T23:36:42.650Z,10.68
2023-03-02T23:39:10.245Z,10.23
2023-03-02T23:41:38.838Z,9.38
2023-03-02T23:44:07.386Z,9.82
2023-03-02T23:46:34.587Z,10.00
2023-03-02T23:49:01.999Z,8.75
2023-03-02T23:51:29.514Z,7.35
2023-03-02T23:53:56.828Z,11.02
2023-03-02T23:56:24.037Z,7.10
2023-03-02T23:58:51.164Z,8.48
